sensor_id;sensor_type;location;lat;lon;timestamp;temperature;humidity
52895;DHT22;38759;53.396;6.722;2023-05-10T00:00:33;13.70;99.90
52895;DHT22;38759;53.396;6.722;2023-05-10T00:02:59;13.70;99.90
52895;DHT22;38759;53.396;6.722;2023-05-10T00:05:25;13.70;99.90
52895;DHT22;38759;53.396;6.722;2023-05-10T00:07:51;13.70;99.90
52895;DHT22;38759;53.396;6.722;2023-05-10T00:10:16;13.70;99.90
52895;DHT22;38759;53.396;6.722;2023-05-10T00:12:42;13.70;99.90
52895;DHT22;38759;53.396;6.722;2023-05-10T00:15:08;13.60;99.90
52895;DHT22;38759;53.396;6.722;2023-05-10T00:17:34;13.50;99.90
52895;DHT22;38759;53.396;6.722;2023-05-10T00:20:00;13.40;99.90
52895;DHT22;38759;53.396;6.722;2023-05-10T00:22:26;13.40;99.90
52895;DHT22;38759;53.396;6.722;2023-05-10T00:24:51;13.40;99.90
52895;DHT22;38759;53.396;6.722;2023-05-10T00:27:17;13.30;99.90
52895;DHT22;38759;53.396;6.722;2023-05-10T00:29:42;13.30;99.90
52895;DHT22;38759;53.396;6.722;2023-05-10T00:32:08;13.20;99.90
52895;DHT22;38759;53.396;6.722;2023-05-10T00:34:34;13.20;99.90
52895;DHT22;38759;53.396;6.722;2023-05-10T00:36:59;13.10;99.90
52895;DHT22;38759;53.396;6.722;2023-05-10T00:39:25;13.10;99.90
52895;DHT22;38759;53.396;6.722;2023-05-10T00:41:52;13.10;99.90
52895;DHT22;38759;53.396;6.722;2023-05-10T00:44:17;13.00;99.90
52895;DHT22;38759;53.396;6.722;2023-05-10T00:46:44;13.10;99.90
52895;DHT22;38759;53.396;6.722;2023-05-10T00:49:10;13.00;99.90
52895;DHT22;38759;53.396;6.722;2023-05-10T00:51:36;13.00;99.90
52895;DHT22;38759;53.396;6.722;2023-05-10T00:54:02;13.00;99.90
52895;DHT22;38759;53.396;6.722;2023-05-10T00:56:28;12.90;99.90
52895;DHT22;38759;53.396;6.722;2023-05-10T00:58:55;12.90;99.90
52895;DHT22;38759;53.396;6.722;2023-05-10T01:01:21;12.90;99.90
52895;DHT22;38759;53.396;6.722;2023-05-10T01:03:48;12.80;99.90
52895;DHT22;38759;53.396;6.722;2023-05-10T01:06:13;12.80;99.90
52895;DHT22;38759;53.396;6.722;2023-05-10T01:08:39;12.70;99.90
52895;DHT22;38759;53.396;6.722;2023-05-10T01:11:05;12.70;99.90
52895;DHT22;38759;53.396;6.722;2023-05-10T01:13:37;12.70;99.90
52895;DHT22;38759;53.396;6.722;2023-05-10T01:16:04;12.70;99.90
52895;DHT22;38759;53.396;6.722;2023-05-10T01:18:34;12.60;99.90
52895;DHT22;38759;53.396;6.722;2023-05-10T01:21:27;12.60;99.90
52895;DHT22;38759;53.396;6.722;2023-05-10T01:32:21;12.60;99.90
52895;DHT22;38759;53.396;6.722;2023-05-10T01:38:03;12.60;99.90
52895;DHT22;38759;53.396;6.722;2023-05-10T01:40:44;12.60;99.90
52895;DHT22;38759;53.396;6.722;2023-05-10T01:43:19;12.60;99.90
52895;DHT22;38759;53.396;6.722;2023-05-10T01:46:01;12.60;99.90
52895;DHT22;38759;53.396;6.722;2023-05-10T01:48:30;12.50;99.90
52895;DHT22;38759;53.396;6.722;2023-05-10T01:50:57;12.60;99.90
52895;DHT22;38759;53.396;6.722;2023-05-10T01:53:23;12.60;99.90
52895;DHT22;38759;53.396;6.722;2023-05-10T01:55:51;12.50;99.90
52895;DHT22;38759;53.396;6.722;2023-05-10T01:58:44;12.50;99.90
52895;DHT22;38759;53.396;6.722;2023-05-10T02:01:13;12.50;99.90
52895;DHT22;38759;53.396;6.722;2023-05-10T02:03:40;12.50;99.90
52895;DHT22;38759;53.396;6.722;2023-05-10T02:06:09;12.40;99.90
52895;DHT22;38759;53.396;6.722;2023-05-10T02:08:36;12.40;99.90
52895;DHT22;38759;53.396;6.722;2023-05-10T02:11:03;12.40;99.90
52895;DHT22;38759;53.396;6.722;2023-05-10T02:13:31;12.40;99.90
52895;DHT22;38759;53.396;6.722;2023-05-10T02:15:59;12.40;99.90
52895;DHT22;38759;53.396;6.722;2023-05-10T02:18:27;12.40;99.90
52895;DHT22;38759;53.396;6.722;2023-05-10T02:20:53;12.40;99.90
52895;DHT22;38759;53.396;6.722;2023-05-10T02:23:20;12.40;99.90
52895;DHT22;38759;53.396;6.722;2023-05-10T02:25:48;12.40;99.90
52895;DHT22;38759;53.396;6.722;2023-05-10T02:28:15;12.40;99.90
52895;DHT22;38759;53.396;6.722;2023-05-10T02:30:42;12.40;99.90
52895;DHT22;38759;53.396;6.722;2023-05-10T02:33:08;12.40;99.90
52895;DHT22;38759;53.396;6.722;2023-05-10T02:35:35;12.40;99.90
52895;DHT22;38759;53.396;6.722;2023-05-10T02:38:01;12.30;99.90
52895;DHT22;38759;53.396;6.722;2023-05-10T02:40:28;12.30;99.90
52895;DHT22;38759;53.396;6.722;2023-05-10T02:42:56;12.30;99.90
52895;DHT22;38759;53.396;6.722;2023-05-10T02:45:25;12.30;99.90
52895;DHT22;38759;53.396;6.722;2023-05-10T02:47:53;12.20;99.90
52895;DHT22;38759;53.396;6.722;2023-05-10T02:50:20;12.30;99.90
52895;DHT22;38759;53.396;6.722;2023-05-10T02:52:50;12.30;99.90
52895;DHT22;38759;53.396;6.722;2023-05-10T02:55:20;12.30;99.90
52895;DHT22;38759;53.396;6.722;2023-05-10T02:57:52;12.20;99.90
52895;DHT22;38759;53.396;6.722;2023-05-10T03:00:20;12.30;99.90
52895;DHT22;38759;53.396;6.722;2023-05-10T03:02:46;12.20;99.90
52895;DHT22;38759;53.396;6.722;2023-05-10T03:05:11;12.20;99.90
52895;DHT22;38759;53.396;6.722;2023-05-10T03:07:37;12.20;99.90
52895;DHT22;38759;53.396;6.722;2023-05-10T03:10:03;12.30;99.90
52895;DHT22;38759;53.396;6.722;2023-05-10T03:18:27;12.20;99.90
52895;DHT22;38759;53.396;6.722;2023-05-10T03:20:59;12.20;99.90
52895;DHT22;38759;53.396;6.722;2023-05-10T03:25:55;12.20;99.90
52895;DHT22;38759;53.396;6.722;2023-05-10T03:28:21;12.30;99.90
52895;DHT22;38759;53.396;6.722;2023-05-10T03:30:50;12.20;99.90
52895;DHT22;38759;53.396;6.722;2023-05-10T03:33:17;12.20;99.90
52895;DHT22;38759;53.396;6.722;2023-05-10T03:35:43;12.20;99.90
52895;DHT22;38759;53.396;6.722;2023-05-10T03:38:11;12.20;99.90
52895;DHT22;38759;53.396;6.722;2023-05-10T03:40:37;12.20;99.90
52895;DHT22;38759;53.396;6.722;2023-05-10T03:43:06;12.20;99.90
52895;DHT22;38759;53.396;6.722;2023-05-10T03:45:31;12.20;99.90
52895;DHT22;38759;53.396;6.722;2023-05-10T03:47:58;12.20;99.90
52895;DHT22;38759;53.396;6.722;2023-05-10T03:50:24;12.20;99.90
52895;DHT22;38759;53.396;6.722;2023-05-10T03:52:49;12.20;99.90
52895;DHT22;38759;53.396;6.722;2023-05-10T03:55:16;12.20;99.90
52895;DHT22;38759;53.396;6.722;2023-05-10T03:57:41;12.20;99.90
52895;DHT22;38759;53.396;6.722;2023-05-10T04:00:08;12.10;99.90
52895;DHT22;38759;53.396;6.722;2023-05-10T04:02:34;12.20;99.90
52895;DHT22;38759;53.396;6.722;2023-05-10T04:04:59;12.20;99.90
52895;DHT22;38759;53.396;6.722;2023-05-10T04:07:25;12.20;99.90
52895;DHT22;38759;53.396;6.722;2023-05-10T04:09:51;12.20;99.90
52895;DHT22;38759;53.396;6.722;2023-05-10T04:12:17;12.20;99.90
52895;DHT22;38759;53.396;6.722;2023-05-10T04:14:43;12.10;99.90
52895;DHT22;38759;53.396;6.722;2023-05-10T04:17:09;12.20;99.90
52895;DHT22;38759;53.396;6.722;2023-05-10T04:19:35;12.10;99.90
52895;DHT22;38759;53.396;6.722;2023-05-10T04:22:02;12.10;99.90
52895;DHT22;38759;53.396;6.722;2023-05-10T04:24:28;12.10;99.90
52895;DHT22;38759;53.396;6.722;2023-05-10T04:26:54;12.10;99.90
52895;DHT22;38759;53.396;6.722;2023-05-10T04:29:20;12.10;99.90
52895;DHT22;38759;53.396;6.722;2023-05-10T04:31:46;12.00;99.90
52895;DHT22;38759;53.396;6.722;2023-05-10T04:34:12;12.00;99.90
52895;DHT22;38759;53.396;6.722;2023-05-10T04:36:37;12.10;99.90
52895;DHT22;38759;53.396;6.722;2023-05-10T04:39:04;12.00;99.90
52895;DHT22;38759;53.396;6.722;2023-05-10T04:41:29;12.00;99.90
52895;DHT22;38759;53.396;6.722;2023-05-10T04:43:55;12.10;99.90
52895;DHT22;38759;53.396;6.722;2023-05-10T04:46:21;12.00;99.90
52895;DHT22;38759;53.396;6.722;2023-05-10T04:48:47;12.00;99.90
52895;DHT22;38759;53.396;6.722;2023-05-10T04:51:13;12.00;99.90
52895;DHT22;38759;53.396;6.722;2023-05-10T04:53:39;12.00;99.90
52895;DHT22;38759;53.396;6.722;2023-05-10T04:56:05;12.00;99.90
52895;DHT22;38759;53.396;6.722;2023-05-10T04:58:31;12.00;99.90
52895;DHT22;38759;53.396;6.722;2023-05-10T05:00:56;12.00;99.90
52895;DHT22;38759;53.396;6.722;2023-05-10T05:03:22;12.20;99.90
52895;DHT22;38759;53.396;6.722;2023-05-10T05:05:48;12.00;99.90
52895;DHT22;38759;53.396;6.722;2023-05-10T05:08:13;12.00;99.90
52895;DHT22;38759;53.396;6.722;2023-05-10T05:10:39;12.00;99.90
52895;DHT22;38759;53.396;6.722;2023-05-10T05:13:05;12.00;99.90
52895;DHT22;38759;53.396;6.722;2023-05-10T05:15:31;12.10;99.90
52895;DHT22;38759;53.396;6.722;2023-05-10T05:17:56;12.00;99.90
52895;DHT22;38759;53.396;6.722;2023-05-10T05:20:22;12.00;99.90
52895;DHT22;38759;53.396;6.722;2023-05-10T05:22:48;12.00;99.90
52895;DHT22;38759;53.396;6.722;2023-05-10T05:25:13;12.10;99.90
52895;DHT22;38759;53.396;6.722;2023-05-10T05:27:40;12.00;99.90
52895;DHT22;38759;53.396;6.722;2023-05-10T05:30:06;12.10;99.90
52895;DHT22;38759;53.396;6.722;2023-05-10T05:32:32;12.10;99.90
52895;DHT22;38759;53.396;6.722;2023-05-10T05:34:58;12.10;99.90
52895;DHT22;38759;53.396;6.722;2023-05-10T05:37:24;12.10;99.90
52895;DHT22;38759;53.396;6.722;2023-05-10T05:39:50;12.10;99.90
52895;DHT22;38759;53.396;6.722;2023-05-10T05:42:16;12.20;99.90
52895;DHT22;38759;53.396;6.722;2023-05-10T05:44:43;12.10;99.90
52895;DHT22;38759;53.396;6.722;2023-05-10T05:47:09;12.00;99.90
52895;DHT22;38759;53.396;6.722;2023-05-10T05:49:34;12.10;99.90
52895;DHT22;38759;53.396;6.722;2023-05-10T05:52:01;12.20;99.90
52895;DHT22;38759;53.396;6.722;2023-05-10T05:54:27;12.20;99.90
52895;DHT22;38759;53.396;6.722;2023-05-10T05:56:54;12.20;99.90
52895;DHT22;38759;53.396;6.722;2023-05-10T05:59:21;12.20;99.90
52895;DHT22;38759;53.396;6.722;2023-05-10T06:01:47;12.20;99.90
52895;DHT22;38759;53.396;6.722;2023-05-10T06:04:12;12.20;99.90
52895;DHT22;38759;53.396;6.722;2023-05-10T06:06:38;12.10;99.90
52895;DHT22;38759;53.396;6.722;2023-05-10T06:09:04;12.20;99.90
52895;DHT22;38759;53.396;6.722;2023-05-10T06:11:29;12.10;99.90
52895;DHT22;38759;53.396;6.722;2023-05-10T06:13:57;12.10;99.90
52895;DHT22;38759;53.396;6.722;2023-05-10T06:16:23;12.10;99.90
52895;DHT22;38759;53.396;6.722;2023-05-10T06:18:49;12.10;99.90
52895;DHT22;38759;53.396;6.722;2023-05-10T06:21:15;12.10;99.90
52895;DHT22;38759;53.396;6.722;2023-05-10T06:23:41;12.10;99.90
52895;DHT22;38759;53.396;6.722;2023-05-10T06:26:07;12.10;99.90
52895;DHT22;38759;53.396;6.722;2023-05-10T06:28:33;12.00;99.90
52895;DHT22;38759;53.396;6.722;2023-05-10T06:30:59;12.00;99.90
52895;DHT22;38759;53.396;6.722;2023-05-10T06:33:25;12.10;99.90
52895;DHT22;38759;53.396;6.722;2023-05-10T06:35:51;12.10;99.90
52895;DHT22;38759;53.396;6.722;2023-05-10T06:38:17;12.00;99.90
52895;DHT22;38759;53.396;6.722;2023-05-10T06:40:43;12.10;99.90
52895;DHT22;38759;53.396;6.722;2023-05-10T06:43:09;12.10;99.90
52895;DHT22;38759;53.396;6.722;2023-05-10T06:45:34;12.10;99.90
52895;DHT22;38759;53.396;6.722;2023-05-10T06:48:00;12.00;99.90
52895;DHT22;38759;53.396;6.722;2023-05-10T06:50:26;12.10;99.90
52895;DHT22;38759;53.396;6.722;2023-05-10T06:52:52;12.10;99.90
52895;DHT22;38759;53.396;6.722;2023-05-10T06:55:17;12.00;99.90
52895;DHT22;38759;53.396;6.722;2023-05-10T06:57:43;12.00;99.90
52895;DHT22;38759;53.396;6.722;2023-05-10T07:00:09;12.00;99.90
52895;DHT22;38759;53.396;6.722;2023-05-10T07:02:35;12.00;99.90
52895;DHT22;38759;53.396;6.722;2023-05-10T07:05:01;11.90;99.90
52895;DHT22;38759;53.396;6.722;2023-05-10T07:07:27;12.00;99.90
52895;DHT22;38759;53.396;6.722;2023-05-10T07:09:54;11.90;99.90
52895;DHT22;38759;53.396;6.722;2023-05-10T07:12:20;11.80;99.90
52895;DHT22;38759;53.396;6.722;2023-05-10T07:14:45;11.90;99.90
52895;DHT22;38759;53.396;6.722;2023-05-10T07:17:11;11.80;99.90
52895;DHT22;38759;53.396;6.722;2023-05-10T07:19:37;11.80;99.90
52895;DHT22;38759;53.396;6.722;2023-05-10T07:22:03;11.80;99.90
52895;DHT22;38759;53.396;6.722;2023-05-10T07:24:28;11.90;99.90
52895;DHT22;38759;53.396;6.722;2023-05-10T07:26:55;11.90;99.90
52895;DHT22;38759;53.396;6.722;2023-05-10T07:29:20;11.90;99.90
52895;DHT22;38759;53.396;6.722;2023-05-10T07:31:46;11.80;99.90
52895;DHT22;38759;53.396;6.722;2023-05-10T07:34:12;11.90;99.90
52895;DHT22;38759;53.396;6.722;2023-05-10T07:36:37;11.90;99.90
52895;DHT22;38759;53.396;6.722;2023-05-10T07:39:03;11.90;99.90
52895;DHT22;38759;53.396;6.722;2023-05-10T07:41:29;11.90;99.90
52895;DHT22;38759;53.396;6.722;2023-05-10T07:43:55;11.90;99.90
52895;DHT22;38759;53.396;6.722;2023-05-10T07:46:20;11.90;99.90
52895;DHT22;38759;53.396;6.722;2023-05-10T07:48:46;11.90;99.90
52895;DHT22;38759;53.396;6.722;2023-05-10T07:51:12;11.90;99.90
52895;DHT22;38759;53.396;6.722;2023-05-10T07:53:38;12.00;99.90
52895;DHT22;38759;53.396;6.722;2023-05-10T07:58:51;11.90;99.90
52895;DHT22;38759;53.396;6.722;2023-05-10T08:01:17;12.00;99.90
52895;DHT22;38759;53.396;6.722;2023-05-10T08:03:42;12.00;99.90
52895;DHT22;38759;53.396;6.722;2023-05-10T08:06:08;12.10;99.90
52895;DHT22;38759;53.396;6.722;2023-05-10T08:08:34;12.00;99.90
52895;DHT22;38759;53.396;6.722;2023-05-10T08:10:59;12.00;99.90
52895;DHT22;38759;53.396;6.722;2023-05-10T08:13:25;11.90;99.90
52895;DHT22;38759;53.396;6.722;2023-05-10T08:15:50;11.90;99.90
52895;DHT22;38759;53.396;6.722;2023-05-10T08:18:18;11.90;99.90
52895;DHT22;38759;53.396;6.722;2023-05-10T08:20:44;12.00;99.90
52895;DHT22;38759;53.396;6.722;2023-05-10T08:23:14;12.00;99.90
52895;DHT22;38759;53.396;6.722;2023-05-10T08:25:40;12.10;99.90
52895;DHT22;38759;53.396;6.722;2023-05-10T08:28:06;12.10;99.90
52895;DHT22;38759;53.396;6.722;2023-05-10T08:30:31;12.10;99.90
52895;DHT22;38759;53.396;6.722;2023-05-10T08:32:57;12.10;99.90
52895;DHT22;38759;53.396;6.722;2023-05-10T08:35:23;12.20;99.90
52895;DHT22;38759;53.396;6.722;2023-05-10T08:37:50;12.20;99.90
52895;DHT22;38759;53.396;6.722;2023-05-10T08:40:19;12.20;99.90
52895;DHT22;38759;53.396;6.722;2023-05-10T08:42:53;12.20;99.90
52895;DHT22;38759;53.396;6.722;2023-05-10T08:45:21;12.00;99.90
52895;DHT22;38759;53.396;6.722;2023-05-10T08:47:48;12.00;99.90
52895;DHT22;38759;53.396;6.722;2023-05-10T08:50:15;12.00;99.90
52895;DHT22;38759;53.396;6.722;2023-05-10T08:52:41;12.00;99.90
52895;DHT22;38759;53.396;6.722;2023-05-10T08:55:08;12.00;99.90
52895;DHT22;38759;53.396;6.722;2023-05-10T08:57:35;12.10;99.90
52895;DHT22;38759;53.396;6.722;2023-05-10T09:00:01;12.00;99.90
52895;DHT22;38759;53.396;6.722;2023-05-10T09:02:27;12.20;99.90
52895;DHT22;38759;53.396;6.722;2023-05-10T09:04:52;12.20;99.90
52895;DHT22;38759;53.396;6.722;2023-05-10T09:07:19;12.20;99.90
52895;DHT22;38759;53.396;6.722;2023-05-10T09:09:46;12.20;99.90
52895;DHT22;38759;53.396;6.722;2023-05-10T09:12:12;12.30;99.90
52895;DHT22;38759;53.396;6.722;2023-05-10T09:14:38;12.40;99.90
52895;DHT22;38759;53.396;6.722;2023-05-10T09:17:05;12.30;99.90
52895;DHT22;38759;53.396;6.722;2023-05-10T09:19:30;12.30;99.90
52895;DHT22;38759;53.396;6.722;2023-05-10T09:21:56;12.40;99.90
52895;DHT22;38759;53.396;6.722;2023-05-10T09:24:25;12.30;99.90
52895;DHT22;38759;53.396;6.722;2023-05-10T09:26:52;12.40;99.90
52895;DHT22;38759;53.396;6.722;2023-05-10T09:29:18;12.40;99.90
52895;DHT22;38759;53.396;6.722;2023-05-10T09:31:49;12.40;99.90
52895;DHT22;38759;53.396;6.722;2023-05-10T09:34:22;12.40;99.90
52895;DHT22;38759;53.396;6.722;2023-05-10T09:36:59;12.50;99.90
52895;DHT22;38759;53.396;6.722;2023-05-10T09:39:36;12.50;99.90
52895;DHT22;38759;53.396;6.722;2023-05-10T09:42:20;12.60;99.90
52895;DHT22;38759;53.396;6.722;2023-05-10T09:44:46;12.60;99.90
52895;DHT22;38759;53.396;6.722;2023-05-10T09:47:17;12.50;99.90
52895;DHT22;38759;53.396;6.722;2023-05-10T09:49:48;12.40;99.90
52895;DHT22;38759;53.396;6.722;2023-05-10T09:52:14;12.40;99.90
52895;DHT22;38759;53.396;6.722;2023-05-10T09:54:45;12.40;99.90
52895;DHT22;38759;53.396;6.722;2023-05-10T09:57:21;12.40;99.90
52895;DHT22;38759;53.396;6.722;2023-05-10T09:59:47;12.50;99.90
52895;DHT22;38759;53.396;6.722;2023-05-10T10:02:13;12.50;99.90
52895;DHT22;38759;53.396;6.722;2023-05-10T10:04:44;12.60;99.90
52895;DHT22;38759;53.396;6.722;2023-05-10T10:07:14;12.70;99.90
52895;DHT22;38759;53.396;6.722;2023-05-10T10:09:40;12.60;99.90
52895;DHT22;38759;53.396;6.722;2023-05-10T10:12:06;12.80;99.90
52895;DHT22;38759;53.396;6.722;2023-05-10T10:14:31;12.70;99.90
52895;DHT22;38759;53.396;6.722;2023-05-10T10:17:00;12.70;99.90
52895;DHT22;38759;53.396;6.722;2023-05-10T10:19:26;12.70;99.90
52895;DHT22;38759;53.396;6.722;2023-05-10T10:21:52;12.80;99.90
52895;DHT22;38759;53.396;6.722;2023-05-10T10:24:18;12.80;99.90
52895;DHT22;38759;53.396;6.722;2023-05-10T10:26:44;12.80;99.90
52895;DHT22;38759;53.396;6.722;2023-05-10T10:29:23;12.90;99.90
52895;DHT22;38759;53.396;6.722;2023-05-10T10:34:46;12.90;99.90
52895;DHT22;38759;53.396;6.722;2023-05-10T10:37:12;13.00;99.90
52895;DHT22;38759;53.396;6.722;2023-05-10T10:39:38;13.00;99.90
52895;DHT22;38759;53.396;6.722;2023-05-10T10:42:04;13.00;99.90
52895;DHT22;38759;53.396;6.722;2023-05-10T10:52:23;13.00;99.90
52895;DHT22;38759;53.396;6.722;2023-05-10T10:54:53;13.10;99.90
52895;DHT22;38759;53.396;6.722;2023-05-10T10:57:22;13.10;99.90
52895;DHT22;38759;53.396;6.722;2023-05-10T10:59:48;13.10;99.90
52895;DHT22;38759;53.396;6.722;2023-05-10T11:07:57;13.30;99.90
52895;DHT22;38759;53.396;6.722;2023-05-10T11:10:24;13.30;99.90
52895;DHT22;38759;53.396;6.722;2023-05-10T11:15:34;13.40;99.90
52895;DHT22;38759;53.396;6.722;2023-05-10T11:18:15;13.40;99.90
52895;DHT22;38759;53.396;6.722;2023-05-10T11:20:41;13.50;99.90
52895;DHT22;38759;53.396;6.722;2023-05-10T11:23:14;13.60;99.90
52895;DHT22;38759;53.396;6.722;2023-05-10T11:25:45;13.50;99.90
52895;DHT22;38759;53.396;6.722;2023-05-10T11:28:11;13.60;99.90
52895;DHT22;38759;53.396;6.722;2023-05-10T11:30:42;13.60;99.90
52895;DHT22;38759;53.396;6.722;2023-05-10T11:33:09;13.70;99.90
52895;DHT22;38759;53.396;6.722;2023-05-10T11:35:39;13.60;99.90
52895;DHT22;38759;53.396;6.722;2023-05-10T11:38:09;13.60;99.90
52895;DHT22;38759;53.396;6.722;2023-05-10T11:40:37;13.60;99.90
52895;DHT22;38759;53.396;6.722;2023-05-10T11:43:03;13.60;99.90
52895;DHT22;38759;53.396;6.722;2023-05-10T11:45:32;13.50;99.90
52895;DHT22;38759;53.396;6.722;2023-05-10T11:47:59;13.50;99.90
52895;DHT22;38759;53.396;6.722;2023-05-10T11:50:25;13.40;99.90
52895;DHT22;38759;53.396;6.722;2023-05-10T11:52:57;13.40;99.90
52895;DHT22;38759;53.396;6.722;2023-05-10T11:55:24;13.40;99.90
52895;DHT22;38759;53.396;6.722;2023-05-10T11:57:54;13.50;99.90
52895;DHT22;38759;53.396;6.722;2023-05-10T12:00:20;13.50;99.90
52895;DHT22;38759;53.396;6.722;2023-05-10T12:02:46;13.60;99.90
52895;DHT22;38759;53.396;6.722;2023-05-10T12:05:13;13.60;99.90
52895;DHT22;38759;53.396;6.722;2023-05-10T12:07:39;13.60;99.90
52895;DHT22;38759;53.396;6.722;2023-05-10T12:10:09;13.60;99.90
52895;DHT22;38759;53.396;6.722;2023-05-10T12:15:20;13.70;99.90
52895;DHT22;38759;53.396;6.722;2023-05-10T12:17:46;13.70;99.90
52895;DHT22;38759;53.396;6.722;2023-05-10T12:20:17;13.60;99.90
52895;DHT22;38759;53.396;6.722;2023-05-10T12:22:51;13.60;99.90
52895;DHT22;38759;53.396;6.722;2023-05-10T12:25:18;13.60;99.90
52895;DHT22;38759;53.396;6.722;2023-05-10T12:27:49;13.60;99.90
52895;DHT22;38759;53.396;6.722;2023-05-10T12:30:20;13.60;99.90
52895;DHT22;38759;53.396;6.722;2023-05-10T12:32:46;13.70;99.90
52895;DHT22;38759;53.396;6.722;2023-05-10T12:35:12;13.70;99.90
52895;DHT22;38759;53.396;6.722;2023-05-10T12:37:37;13.70;99.90
52895;DHT22;38759;53.396;6.722;2023-05-10T12:40:08;13.70;99.90
52895;DHT22;38759;53.396;6.722;2023-05-10T12:42:35;13.80;99.90
52895;DHT22;38759;53.396;6.722;2023-05-10T12:45:02;13.90;99.90
52895;DHT22;38759;53.396;6.722;2023-05-10T12:47:28;13.80;99.90
52895;DHT22;38759;53.396;6.722;2023-05-10T12:49:53;13.90;99.90
52895;DHT22;38759;53.396;6.722;2023-05-10T12:52:19;14.00;99.90
52895;DHT22;38759;53.396;6.722;2023-05-10T12:54:45;14.00;99.90
52895;DHT22;38759;53.396;6.722;2023-05-10T12:57:12;13.90;99.90
52895;DHT22;38759;53.396;6.722;2023-05-10T12:59:38;14.00;99.90
52895;DHT22;38759;53.396;6.722;2023-05-10T13:02:04;14.00;99.90
52895;DHT22;38759;53.396;6.722;2023-05-10T13:04:30;14.10;99.90
52895;DHT22;38759;53.396;6.722;2023-05-10T13:06:56;14.20;99.90
52895;DHT22;38759;53.396;6.722;2023-05-10T13:09:24;14.30;99.90
52895;DHT22;38759;53.396;6.722;2023-05-10T13:11:51;14.40;99.90
52895;DHT22;38759;53.396;6.722;2023-05-10T13:14:18;14.40;99.90
52895;DHT22;38759;53.396;6.722;2023-05-10T13:16:46;14.40;99.90
52895;DHT22;38759;53.396;6.722;2023-05-10T13:19:13;14.50;99.90
52895;DHT22;38759;53.396;6.722;2023-05-10T13:21:38;14.50;99.90
52895;DHT22;38759;53.396;6.722;2023-05-10T13:24:06;14.50;99.90
52895;DHT22;38759;53.396;6.722;2023-05-10T13:26:32;14.50;99.90
52895;DHT22;38759;53.396;6.722;2023-05-10T13:28:58;14.60;99.90
52895;DHT22;38759;53.396;6.722;2023-05-10T13:31:24;14.60;99.90
52895;DHT22;38759;53.396;6.722;2023-05-10T13:33:50;14.70;99.90
52895;DHT22;38759;53.396;6.722;2023-05-10T13:36:15;14.70;99.90
52895;DHT22;38759;53.396;6.722;2023-05-10T13:38:41;14.70;99.90
52895;DHT22;38759;53.396;6.722;2023-05-10T13:41:07;14.90;99.90
52895;DHT22;38759;53.396;6.722;2023-05-10T13:43:32;14.90;99.90
52895;DHT22;38759;53.396;6.722;2023-05-10T13:45:58;15.00;99.90
52895;DHT22;38759;53.396;6.722;2023-05-10T13:48:24;15.10;99.90
52895;DHT22;38759;53.396;6.722;2023-05-10T13:50:49;15.10;99.90
52895;DHT22;38759;53.396;6.722;2023-05-10T13:53:15;15.20;99.90
52895;DHT22;38759;53.396;6.722;2023-05-10T13:55:41;15.20;99.90
52895;DHT22;38759;53.396;6.722;2023-05-10T13:58:07;15.30;99.90
52895;DHT22;38759;53.396;6.722;2023-05-10T14:00:32;15.40;99.90
52895;DHT22;38759;53.396;6.722;2023-05-10T14:02:58;15.50;99.90
52895;DHT22;38759;53.396;6.722;2023-05-10T14:05:24;15.50;99.90
52895;DHT22;38759;53.396;6.722;2023-05-10T14:07:50;15.50;99.90
52895;DHT22;38759;53.396;6.722;2023-05-10T14:10:16;15.50;99.90
52895;DHT22;38759;53.396;6.722;2023-05-10T14:12:42;15.50;99.90
52895;DHT22;38759;53.396;6.722;2023-05-10T14:15:07;15.50;99.90
52895;DHT22;38759;53.396;6.722;2023-05-10T14:17:35;15.60;99.90
52895;DHT22;38759;53.396;6.722;2023-05-10T14:20:01;15.70;99.90
52895;DHT22;38759;53.396;6.722;2023-05-10T14:22:27;15.70;99.90
52895;DHT22;38759;53.396;6.722;2023-05-10T14:24:53;15.60;99.90
52895;DHT22;38759;53.396;6.722;2023-05-10T14:27:18;15.70;99.90
52895;DHT22;38759;53.396;6.722;2023-05-10T14:29:44;15.90;99.90
52895;DHT22;38759;53.396;6.722;2023-05-10T14:32:10;16.10;99.90
52895;DHT22;38759;53.396;6.722;2023-05-10T14:34:36;16.00;99.90
52895;DHT22;38759;53.396;6.722;2023-05-10T14:37:01;16.00;99.90
52895;DHT22;38759;53.396;6.722;2023-05-10T14:39:27;16.00;99.90
52895;DHT22;38759;53.396;6.722;2023-05-10T14:41:55;16.00;99.90
52895;DHT22;38759;53.396;6.722;2023-05-10T14:44:21;16.10;99.90
52895;DHT22;38759;53.396;6.722;2023-05-10T14:46:47;16.10;99.90
52895;DHT22;38759;53.396;6.722;2023-05-10T14:49:13;16.00;99.90
52895;DHT22;38759;53.396;6.722;2023-05-10T14:51:39;15.70;99.90
52895;DHT22;38759;53.396;6.722;2023-05-10T14:54:05;15.80;99.90
52895;DHT22;38759;53.396;6.722;2023-05-10T14:56:31;15.90;99.90
52895;DHT22;38759;53.396;6.722;2023-05-10T14:58:57;16.00;99.90
52895;DHT22;38759;53.396;6.722;2023-05-10T15:01:23;15.90;99.90
52895;DHT22;38759;53.396;6.722;2023-05-10T15:03:48;15.70;99.90
52895;DHT22;38759;53.396;6.722;2023-05-10T15:06:14;15.60;99.90
52895;DHT22;38759;53.396;6.722;2023-05-10T15:08:41;15.50;99.90
52895;DHT22;38759;53.396;6.722;2023-05-10T15:11:07;15.30;99.90
52895;DHT22;38759;53.396;6.722;2023-05-10T15:13:32;15.30;99.90
52895;DHT22;38759;53.396;6.722;2023-05-10T15:15:58;15.30;99.90
52895;DHT22;38759;53.396;6.722;2023-05-10T15:18:23;15.40;99.90
52895;DHT22;38759;53.396;6.722;2023-05-10T15:20:49;15.50;99.90
52895;DHT22;38759;53.396;6.722;2023-05-10T15:23:15;15.40;99.90
52895;DHT22;38759;53.396;6.722;2023-05-10T15:25:41;15.30;99.90
52895;DHT22;38759;53.396;6.722;2023-05-10T15:28:06;15.30;99.90
52895;DHT22;38759;53.396;6.722;2023-05-10T15:30:32;15.30;99.90
52895;DHT22;38759;53.396;6.722;2023-05-10T15:32:58;15.30;99.90
52895;DHT22;38759;53.396;6.722;2023-05-10T15:35:23;15.20;99.90
52895;DHT22;38759;53.396;6.722;2023-05-10T15:37:49;15.10;99.90
52895;DHT22;38759;53.396;6.722;2023-05-10T15:40:15;15.00;99.90
52895;DHT22;38759;53.396;6.722;2023-05-10T15:42:41;15.00;99.90
52895;DHT22;38759;53.396;6.722;2023-05-10T15:45:07;14.90;99.90
52895;DHT22;38759;53.396;6.722;2023-05-10T15:47:32;14.50;99.90
52895;DHT22;38759;53.396;6.722;2023-05-10T15:49:58;14.50;99.90
52895;DHT22;38759;53.396;6.722;2023-05-10T15:52:24;14.40;99.90
52895;DHT22;38759;53.396;6.722;2023-05-10T15:54:50;14.40;99.90
52895;DHT22;38759;53.396;6.722;2023-05-10T15:57:16;14.50;99.90
52895;DHT22;38759;53.396;6.722;2023-05-10T15:59:41;14.50;99.90
52895;DHT22;38759;53.396;6.722;2023-05-10T16:02:08;14.60;99.90
52895;DHT22;38759;53.396;6.722;2023-05-10T16:04:36;14.70;99.90
52895;DHT22;38759;53.396;6.722;2023-05-10T16:07:02;14.80;99.90
52895;DHT22;38759;53.396;6.722;2023-05-10T16:09:28;14.80;99.90
52895;DHT22;38759;53.396;6.722;2023-05-10T16:11:53;14.90;99.90